createdAt,value
2022-11-27T00:01:16.639Z,100753.19
2022-11-27T00:03:44.254Z,100748.28
2022-11-27T00:06:15.828Z,100738.72
2022-11-27T00:08:43.656Z,100748.97
2022-11-27T00:11:12.109Z,100749.81
2022-11-27T00:13:39.432Z,100753.47
2022-11-27T00:16:06.882Z,100761.22
2022-11-27T00:18:34.737Z,100750.31
2022-11-27T00:21:11.721Z,100750.19
2022-11-27T00:23:39.450Z,100749.91
2022-11-27T00:26:07.076Z,100741.84
2022-11-27T00:28:34.408Z,100747.22
2022-11-27T00:31:06.477Z,100742.06
2022-11-27T00:33:33.847Z,100744.16
2022-11-27T00:36:04.780Z,100753.25
2022-11-27T00:38:37.280Z,100743.78
2022-11-27T00:41:09.384Z,100747.84
2022-11-27T00:43:43.965Z,100751.09
2022-11-27T00:46:13.096Z,100752.41
2022-11-27T00:48:40.791Z,100755.00
2022-11-27T00:51:08.898Z,100753.53
2022-11-27T00:53:36.227Z,100762.59
2022-11-27T00:56:03.717Z,100756.25
2022-11-27T00:58:30.944Z,100755.41
2022-11-27T01:00:59.147Z,100757.06
2022-11-27T01:03:26.896Z,100766.28
2022-11-27T01:05:54.088Z,100762.03
2022-11-27T01:08:21.566Z,100759.66
2022-11-27T01:10:54.893Z,100758.69
2022-11-27T01:13:26.387Z,100757.84
2022-11-27T01:16:03.111Z,100752.88
2022-11-27T01:18:30.485Z,100755.16
2022-11-27T01:20:58.053Z,100744.72
2022-11-27T01:23:25.410Z,100755.87
2022-11-27T01:25:55.640Z,100761.50
2022-11-27T01:28:24.084Z,100758.63
2022-11-27T01:30:51.704Z,100763.53
2022-11-27T01:33:19.071Z,100762.00
2022-11-27T01:35:53.702Z,100762.09
2022-11-27T01:38:21.483Z,100759.31
2022-11-27T01:40:49.091Z,100774.03
2022-11-27T01:43:16.436Z,100766.09
2022-11-27T01:45:44.284Z,100761.31
2022-11-27T01:48:11.938Z,100761.81
2022-11-27T01:50:39.246Z,100758.75
2022-11-27T01:53:07.916Z,100749.63
2022-11-27T01:55:43.279Z,100759.78
2022-11-27T01:58:11.532Z,100754.88
2022-11-27T02:00:39.173Z,100767.44
2022-11-27T02:03:06.874Z,100762.84
2022-11-27T02:05:34.365Z,100763.81
2022-11-27T02:08:03.490Z,100764.00
2022-11-27T02:10:42.996Z,100769.25
2022-11-27T02:13:13.269Z,100767.34
2022-11-27T02:16:17.828Z,100767.16
2022-11-27T02:18:56.260Z,100765.50
2022-11-27T02:21:29.681Z,100761.72
2022-11-27T02:24:29.647Z,100759.09
2022-11-27T02:27:26.361Z,100758.66
2022-11-27T02:29:54.897Z,100753.19
2022-11-27T02:32:25.024Z,100761.91
2022-11-27T02:34:57.572Z,100754.53
2022-11-27T02:37:31.324Z,100761.03
2022-11-27T02:40:02.958Z,100768.97
2022-11-27T02:42:31.768Z,100770.97
2022-11-27T02:45:00.364Z,100771.66
2022-11-27T02:47:28.413Z,100774.31
2022-11-27T02:49:57.157Z,100776.16
2022-11-27T02:52:27.426Z,100771.63
2022-11-27T02:54:55.560Z,100768.19
2022-11-27T02:57:23.441Z,100770.50
2022-11-27T02:59:50.618Z,100771.94
2022-11-27T03:02:20.257Z,100769.72
2022-11-27T03:04:49.504Z,100766.00
2022-11-27T03:07:18.477Z,100765.91
2022-11-27T03:09:46.999Z,100766.00
2022-11-27T03:12:14.497Z,100772.87
2022-11-27T03:14:42.086Z,100771.25
2022-11-27T03:17:28.146Z,100768.97
2022-11-27T03:20:00.240Z,100773.75
2022-11-27T03:22:28.042Z,100770.09
2022-11-27T03:24:55.632Z,100774.59
2022-11-27T03:27:32.898Z,100774.72
2022-11-27T03:30:01.250Z,100772.97
2022-11-27T03:32:28.675Z,100775.34
2022-11-27T03:34:55.850Z,100776.44
2022-11-27T03:37:23.445Z,100776.03
2022-11-27T03:39:51.044Z,100785.87
2022-11-27T03:42:28.783Z,100782.81
2022-11-27T03:45:14.622Z,100783.44
2022-11-27T03:47:54.051Z,100789.37
2022-11-27T03:50:40.455Z,100786.78
2022-11-27T03:53:19.940Z,100791.09
2022-11-27T03:56:10.026Z,100788.63
2022-11-27T03:58:40.539Z,100783.25
2022-11-27T04:01:09.199Z,100795.50
2022-11-27T04:03:36.947Z,100787.41
2022-11-27T04:06:04.386Z,100784.06
2022-11-27T04:08:31.576Z,100779.47
2022-11-27T04:10:59.032Z,100779.66
2022-11-27T04:13:26.216Z,100788.63
2022-11-27T04:15:53.522Z,100775.53
2022-11-27T04:18:21.092Z,100784.41
2022-11-27T04:20:48.293Z,100783.69
2022-11-27T04:23:15.541Z,100789.00
2022-11-27T04:25:43.041Z,100783.91
2022-11-27T04:28:10.219Z,100787.94
2022-11-27T04:30:37.479Z,100787.97
2022-11-27T04:33:05.033Z,100790.66
2022-11-27T04:35:32.277Z,100793.50
2022-11-27T04:37:59.574Z,100786.09
2022-11-27T04:40:27.213Z,100790.81
2022-11-27T04:42:54.498Z,100783.59
2022-11-27T04:45:21.667Z,100777.78
2022-11-27T04:47:49.131Z,100779.16
2022-11-27T04:50:16.338Z,100782.78
2022-11-27T04:52:43.591Z,100778.44
2022-11-27T04:55:11.028Z,100777.53
2022-11-27T04:57:38.240Z,100775.47
2022-11-27T05:00:05.980Z,100780.59
2022-11-27T05:02:33.505Z,100780.03
2022-11-27T05:05:00.701Z,100777.62
2022-11-27T05:07:28.006Z,100782.00
2022-11-27T05:09:55.567Z,100784.94
2022-11-27T05:12:22.792Z,100786.19
2022-11-27T05:14:50.071Z,100777.88
2022-11-27T05:17:17.584Z,100773.25
2022-11-27T05:19:44.756Z,100773.69
2022-11-27T05:22:11.958Z,100775.03
2022-11-27T05:24:39.616Z,100778.41
2022-11-27T05:27:06.981Z,100782.50
2022-11-27T05:29:34.322Z,100779.28
2022-11-27T05:32:01.804Z,100779.56
2022-11-27T05:34:29.024Z,100774.97
2022-11-27T05:36:56.225Z,100779.22
2022-11-27T05:39:23.915Z,100781.22
2022-11-27T05:41:51.111Z,100779.22
2022-11-27T05:44:18.307Z,100774.62
2022-11-27T05:46:45.884Z,100772.78
2022-11-27T05:49:13.820Z,100766.81
2022-11-27T05:51:41.971Z,100772.03
2022-11-27T05:54:11.622Z,100777.88
2022-11-27T05:56:38.890Z,100782.09
2022-11-27T05:59:06.098Z,100779.53
2022-11-27T06:01:33.609Z,100781.34
2022-11-27T06:04:01.153Z,100785.06
2022-11-27T06:06:28.475Z,100784.34
2022-11-27T06:08:55.695Z,100785.22
2022-11-27T06:11:23.667Z,100774.53
2022-11-27T06:13:50.882Z,100775.87
2022-11-27T06:16:22.246Z,100783.44
2022-11-27T06:18:51.090Z,100784.78
2022-11-27T06:21:18.495Z,100792.50
2022-11-27T06:23:45.886Z,100792.50
2022-11-27T06:26:17.431Z,100798.09
2022-11-27T06:28:44.900Z,100801.53
2022-11-27T06:31:17.855Z,100794.28
2022-11-27T06:33:46.164Z,100796.63
2022-11-27T06:36:13.673Z,100791.34
2022-11-27T06:38:40.890Z,100796.31
2022-11-27T06:41:08.971Z,100804.94
2022-11-27T06:43:36.488Z,100804.50
2022-11-27T06:46:04.467Z,100810.22
2022-11-27T06:48:32.109Z,100804.75
2022-11-27T06:51:00.752Z,100813.28
2022-11-27T06:53:28.425Z,100808.44
2022-11-27T06:55:55.810Z,100814.84
2022-11-27T06:58:27.781Z,100811.31
2022-11-27T07:00:59.057Z,100803.72
2022-11-27T07:03:26.702Z,100797.69
2022-11-27T07:05:54.167Z,100794.03
2022-11-27T07:08:22.287Z,100800.72
2022-11-27T07:10:49.818Z,100801.03
2022-11-27T07:13:17.048Z,100801.41
2022-11-27T07:15:44.306Z,100803.63
2022-11-27T07:18:11.933Z,100806.50
2022-11-27T07:20:39.133Z,100810.53
2022-11-27T07:23:06.382Z,100802.97
2022-11-27T07:25:33.852Z,100805.19
2022-11-27T07:28:01.888Z,100807.19
2022-11-27T07:30:29.150Z,100807.22
2022-11-27T07:32:56.648Z,100811.69
2022-11-27T07:35:23.884Z,100810.37
2022-11-27T07:37:51.028Z,100809.41
2022-11-27T07:40:18.608Z,100807.88
2022-11-27T07:42:45.820Z,100813.41
2022-11-27T07:45:13.035Z,100810.56
2022-11-27T07:47:40.523Z,100816.31
2022-11-27T07:50:08.525Z,100810.09
2022-11-27T07:52:41.154Z,100812.56
2022-11-27T07:55:09.988Z,100809.87
2022-11-27T07:57:37.210Z,100801.28
2022-11-27T08:00:05.087Z,100802.97
2022-11-27T08:02:32.122Z,100808.69
2022-11-27T08:04:59.710Z,100806.87
2022-11-27T08:07:27.755Z,100805.09
2022-11-27T08:09:54.967Z,100812.09
2022-11-27T08:12:23.218Z,100810.13
2022-11-27T08:14:50.558Z,100815.91
2022-11-27T08:17:17.766Z,100816.31
2022-11-27T08:19:45.266Z,100814.97
2022-11-27T08:22:13.084Z,100814.72
2022-11-27T08:24:42.530Z,100820.09
2022-11-27T08:27:10.430Z,100820.22
2022-11-27T08:29:37.980Z,100825.38
2022-11-27T08:32:05.522Z,100834.75
2022-11-27T08:34:33.115Z,100829.72
2022-11-27T08:37:00.346Z,100833.28
2022-11-27T08:39:27.620Z,100828.41
2022-11-27T08:41:55.134Z,100827.03
2022-11-27T08:44:22.412Z,100821.66
2022-11-27T08:46:49.685Z,100825.78
2022-11-27T08:49:17.168Z,100827.19
2022-11-27T08:51:44.414Z,100826.94
2022-11-27T08:54:11.746Z,100834.66
2022-11-27T08:56:39.223Z,100835.84
2022-11-27T08:59:06.416Z,100840.31
2022-11-27T09:01:33.671Z,100844.09
2022-11-27T09:04:01.371Z,100844.03
2022-11-27T09:06:29.523Z,100849.12
2022-11-27T09:08:57.243Z,100853.09
2022-11-27T09:11:24.766Z,100859.72
2022-11-27T09:13:52.003Z,100845.19
2022-11-27T09:16:20.135Z,100849.22
2022-11-27T09:18:48.737Z,100854.28
2022-11-27T09:21:16.471Z,100842.03
2022-11-27T09:23:43.754Z,100856.50
2022-11-27T09:26:12.563Z,100858.75
2022-11-27T09:28:40.212Z,100855.72
2022-11-27T09:31:08.302Z,100848.81
2022-11-27T09:33:36.552Z,100846.00
2022-11-27T09:36:08.081Z,100846.06
2022-11-27T09:38:35.892Z,100841.13
2022-11-27T09:41:07.138Z,100847.25
2022-11-27T09:43:34.987Z,100840.56
2022-11-27T09:46:08.303Z,100837.59
2022-11-27T09:48:37.803Z,100844.53
2022-11-27T09:51:14.057Z,100847.78
2022-11-27T09:53:47.978Z,100848.41
2022-11-27T09:56:16.561Z,100837.31
2022-11-27T09:58:45.185Z,100835.38
2022-11-27T10:01:16.583Z,100830.31
2022-11-27T10:03:44.903Z,100828.03
2022-11-27T10:06:28.096Z,100823.59
2022-11-27T10:09:14.424Z,100819.53
2022-11-27T10:11:48.491Z,100817.41
2022-11-27T10:14:34.740Z,100810.75
2022-11-27T10:17:08.271Z,100805.03
2022-11-27T10:19:38.950Z,100805.75
2022-11-27T10:22:21.578Z,100801.84
2022-11-27T10:25:19.171Z,100806.28
2022-11-27T10:27:49.382Z,100800.81
2022-11-27T10:30:17.842Z,100797.44
2022-11-27T10:33:01.249Z,100806.31
2022-11-27T10:35:29.812Z,100798.56
2022-11-27T10:37:59.744Z,100799.06
2022-11-27T10:40:40.350Z,100797.34
2022-11-27T10:43:07.604Z,100793.81
2022-11-27T10:45:50.275Z,100792.63
2022-11-27T10:48:17.564Z,100790.13
2022-11-27T10:50:46.088Z,100795.06
2022-11-27T10:53:33.062Z,100794.13
2022-11-27T10:56:15.150Z,100787.09
2022-11-27T10:58:53.109Z,100781.69
2022-11-27T11:01:21.082Z,100782.00
2022-11-27T11:03:48.572Z,100769.34
2022-11-27T11:06:21.415Z,100764.09
2022-11-27T11:09:07.098Z,100765.53
2022-11-27T11:11:34.853Z,100760.25
2022-11-27T11:14:02.771Z,100755.59
2022-11-27T11:16:35.679Z,100756.78
2022-11-27T11:19:03.466Z,100753.22
2022-11-27T11:21:41.251Z,100753.41
2022-11-27T11:24:28.183Z,100747.50
2022-11-27T11:26:56.435Z,100756.84
2022-11-27T11:29:26.911Z,100752.22
2022-11-27T11:31:55.131Z,100744.97
2022-11-27T11:34:29.386Z,100742.31
2022-11-27T11:37:05.014Z,100739.44
2022-11-27T11:39:33.763Z,100733.66
2022-11-27T11:42:01.283Z,100737.16
2022-11-27T11:44:33.355Z,100741.97
2022-11-27T11:47:00.862Z,100734.47
2022-11-27T11:49:28.366Z,100725.25
2022-11-27T11:52:04.249Z,100720.47
2022-11-27T11:54:31.712Z,100721.28
2022-11-27T11:56:59.536Z,100724.25
2022-11-27T11:59:43.765Z,100723.41
2022-11-27T12:02:31.533Z,100724.53
2022-11-27T12:05:06.200Z,100715.56
2022-11-27T12:07:39.616Z,100706.56
2022-11-27T12:10:14.471Z,100712.59
2022-11-27T12:13:00.646Z,100713.47
2022-11-27T12:15:32.480Z,100724.91
2022-11-27T12:18:18.558Z,100720.78
2022-11-27T12:21:01.203Z,100708.53
2022-11-27T12:23:40.776Z,100712.88
2022-11-27T12:26:14.208Z,100707.44
2022-11-27T12:28:59.583Z,100706.97
2022-11-27T12:31:31.574Z,100706.44
2022-11-27T12:34:00.888Z,100709.06
2022-11-27T12:36:48.707Z,100712.97
2022-11-27T12:39:20.434Z,100702.25
2022-11-27T12:42:06.613Z,100707.59
2022-11-27T12:44:33.828Z,100703.59
2022-11-27T12:47:10.057Z,100694.16
2022-11-27T12:49:37.295Z,100708.44
2022-11-27T12:52:10.509Z,100696.34
2022-11-27T12:54:37.700Z,100700.47
2022-11-27T12:57:07.414Z,100701.34
2022-11-27T12:59:49.153Z,100699.09
2022-11-27T13:02:27.863Z,100693.72
2022-11-27T13:05:05.833Z,100699.81
2022-11-27T13:07:45.579Z,100694.31
2022-11-27T13:10:15.408Z,100679.69
2022-11-27T13:12:44.861Z,100680.56
2022-11-27T13:15:35.380Z,100690.03
2022-11-27T13:18:22.058Z,100676.66
2022-11-27T13:20:52.321Z,100677.06
2022-11-27T13:23:20.666Z,100678.44
2022-11-27T13:25:51.963Z,100683.50
2022-11-27T13:28:36.211Z,100679.66
2022-11-27T13:31:03.397Z,100679.00
2022-11-27T13:33:34.163Z,100674.91
2022-11-27T13:36:03.465Z,100677.37
2022-11-27T13:38:33.445Z,100680.59
2022-11-27T13:41:05.668Z,100681.03
2022-11-27T13:43:43.220Z,100678.00
2022-11-27T13:46:18.253Z,100675.59
2022-11-27T13:49:05.234Z,100683.03
2022-11-27T13:51:33.508Z,100683.53
2022-11-27T13:54:11.069Z,100682.53
2022-11-27T13:56:38.503Z,100682.00
2022-11-27T13:59:24.963Z,100676.47
2022-11-27T14:01:59.344Z,100681.84
2022-11-27T14:04:27.486Z,100676.91
2022-11-27T14:07:00.238Z,100672.09
2022-11-27T14:09:57.589Z,100673.78
2022-11-27T14:12:30.343Z,100674.50
2022-11-27T14:15:00.770Z,100679.81
2022-11-27T14:17:33.711Z,100680.19
2022-11-27T14:20:05.979Z,100682.91
2022-11-27T14:22:44.226Z,100683.59
2022-11-27T14:25:24.156Z,100686.09
2022-11-27T14:28:09.613Z,100688.41
2022-11-27T14:30:47.618Z,100682.56
2022-11-27T14:33:25.503Z,100679.84
2022-11-27T14:35:54.453Z,100680.81
2022-11-27T14:38:22.220Z,100681.59
2022-11-27T14:40:49.894Z,100681.00
2022-11-27T14:43:18.388Z,100685.34
2022-11-27T14:45:46.778Z,100683.66
2022-11-27T14:48:24.005Z,100687.69
2022-11-27T14:50:52.260Z,100693.81
2022-11-27T14:53:20.114Z,100689.72
2022-11-27T14:55:51.312Z,100688.47
2022-11-27T14:58:20.219Z,100699.69
2022-11-27T15:00:51.839Z,100701.59
2022-11-27T15:03:19.526Z,100704.22
2022-11-27T15:05:53.636Z,100705.56
2022-11-27T15:08:21.365Z,100706.00
2022-11-27T15:10:48.917Z,100715.78
2022-11-27T15:13:25.763Z,100711.97
2022-11-27T15:16:03.999Z,100711.19
2022-11-27T15:18:32.301Z,100709.81
2022-11-27T15:20:59.970Z,100711.78
2022-11-27T15:23:29.111Z,100711.78
2022-11-27T15:25:59.327Z,100709.13
2022-11-27T15:28:45.817Z,100712.69
2022-11-27T15:31:32.755Z,100706.97
2022-11-27T15:34:00.332Z,100699.03
2022-11-27T15:36:32.414Z,100702.53
2022-11-27T15:39:32.451Z,100700.16
2022-11-27T15:42:00.936Z,100710.03
2022-11-27T15:44:29.396Z,100711.56
2022-11-27T15:46:57.108Z,100712.75
2022-11-27T15:49:24.387Z,100711.34
2022-11-27T15:51:52.108Z,100712.28
2022-11-27T15:54:19.435Z,100709.28
2022-11-27T15:56:47.882Z,100704.41
2022-11-27T15:59:15.673Z,100709.38
2022-11-27T16:01:43.265Z,100711.13
2022-11-27T16:04:10.779Z,100706.53
2022-11-27T16:06:38.366Z,100701.06
2022-11-27T16:09:05.863Z,100712.44
2022-11-27T16:11:33.415Z,100706.88
2022-11-27T16:14:00.691Z,100705.31
2022-11-27T16:16:27.977Z,100688.91
2022-11-27T16:19:02.003Z,100692.66
2022-11-27T16:21:30.159Z,100695.50
2022-11-27T16:24:02.141Z,100690.94
2022-11-27T16:26:29.742Z,100693.94
2022-11-27T16:28:57.166Z,100689.81
2022-11-27T16:31:25.164Z,100686.03
2022-11-27T16:33:52.487Z,100680.81
2022-11-27T16:36:20.543Z,100673.53
2022-11-27T16:38:48.508Z,100671.59
2022-11-27T16:41:17.061Z,100670.25
2022-11-27T16:43:45.714Z,100680.91
2022-11-27T16:46:17.381Z,100679.91
2022-11-27T16:48:44.893Z,100677.63
2022-11-27T16:51:20.170Z,100670.78
2022-11-27T16:53:48.712Z,100675.34
2022-11-27T16:56:17.475Z,100661.19
2022-11-27T16:58:45.567Z,100664.56
2022-11-27T17:01:14.429Z,100665.00
2022-11-27T17:03:42.151Z,100665.25
2022-11-27T17:06:10.653Z,100666.31
2022-11-27T17:08:38.124Z,100668.03
2022-11-27T17:11:09.624Z,100674.72
2022-11-27T17:13:36.857Z,100673.16
2022-11-27T17:16:05.065Z,100667.84
2022-11-27T17:18:33.329Z,100673.38
2022-11-27T17:21:02.554Z,100668.81
2022-11-27T17:23:29.957Z,100655.91
2022-11-27T17:25:58.259Z,100656.56
2022-11-27T17:28:25.565Z,100648.84
2022-11-27T17:30:52.991Z,100651.78
2022-11-27T17:33:20.999Z,100649.06
2022-11-27T17:35:48.335Z,100641.59
2022-11-27T17:38:15.600Z,100658.09
2022-11-27T17:40:43.793Z,100649.81
2022-11-27T17:43:11.268Z,100646.22
2022-11-27T17:45:41.918Z,100638.13
2022-11-27T17:48:10.132Z,100626.87
2022-11-27T17:50:37.414Z,100632.91
2022-11-27T17:53:05.018Z,100631.53
2022-11-27T17:55:33.063Z,100626.78
2022-11-27T17:58:00.457Z,100613.63
2022-11-27T18:00:28.334Z,100615.94
2022-11-27T18:02:55.903Z,100619.50
2022-11-27T18:05:23.965Z,100613.25
2022-11-27T18:07:51.450Z,100601.12
2022-11-27T18:10:19.392Z,100609.28
2022-11-27T18:12:46.848Z,100610.97
2022-11-27T18:15:14.449Z,100607.47
2022-11-27T18:17:42.055Z,100618.41
2022-11-27T18:20:09.509Z,100613.91
2022-11-27T18:22:36.828Z,100618.34
2022-11-27T18:25:05.055Z,100621.41
2022-11-27T18:27:33.502Z,100621.72
2022-11-27T18:30:00.735Z,100622.72
2022-11-27T18:32:28.513Z,100611.03
2022-11-27T18:34:55.767Z,100611.53
2022-11-27T18:37:23.575Z,100611.06
2022-11-27T18:39:51.479Z,100610.69
2022-11-27T18:42:19.293Z,100606.91
2022-11-27T18:44:46.766Z,100599.09
2022-11-27T18:47:15.180Z,100602.59
2022-11-27T18:49:43.365Z,100600.16
2022-11-27T18:52:11.026Z,100599.03
2022-11-27T18:54:38.736Z,100597.19
2022-11-27T18:57:07.490Z,100601.12
2022-11-27T18:59:34.799Z,100600.81
2022-11-27T19:02:02.769Z,100606.22
2022-11-27T19:04:30.128Z,100607.59
2022-11-27T19:06:57.612Z,100607.94
2022-11-27T19:09:25.420Z,100603.53
2022-11-27T19:11:53.503Z,100603.72
2022-11-27T19:14:20.758Z,100599.69
2022-11-27T19:16:48.617Z,100605.66
2022-11-27T19:22:07.277Z,100604.78
2022-11-27T19:24:34.706Z,100600.34
2022-11-27T19:27:02.040Z,100595.34
2022-11-27T19:29:30.483Z,100598.78
2022-11-27T19:31:58.959Z,100602.47
2022-11-27T19:34:26.805Z,100604.91
2022-11-27T19:36:54.617Z,100613.91
2022-11-27T19:39:22.207Z,100616.41
2022-11-27T19:41:49.744Z,100612.47
2022-11-27T19:44:17.829Z,100603.03
2022-11-27T19:46:46.455Z,100604.84
2022-11-27T19:49:15.036Z,100607.41
2022-11-27T19:51:42.935Z,100606.41
2022-11-27T19:54:13.111Z,100613.66
2022-11-27T19:56:42.257Z,100601.81
2022-11-27T19:59:10.511Z,100598.69
2022-11-27T20:01:40.270Z,100604.78
2022-11-27T20:04:09.679Z,100589.41
2022-11-27T20:06:37.084Z,100584.16
2022-11-27T20:09:04.992Z,100582.31
2022-11-27T20:11:35.194Z,100588.44
2022-11-27T20:14:04.671Z,100590.56
2022-11-27T20:16:32.969Z,100587.97
2022-11-27T20:19:01.613Z,100596.31
2022-11-27T20:21:28.976Z,100590.88
2022-11-27T20:23:57.645Z,100586.72
2022-11-27T20:26:26.173Z,100585.41
2022-11-27T20:28:54.224Z,100584.75
2022-11-27T20:31:24.232Z,100588.56
2022-11-27T20:33:52.476Z,100578.72
2022-11-27T20:36:21.318Z,100575.78
2022-11-27T20:38:49.281Z,100575.97
2022-11-27T20:41:17.888Z,100583.69
2022-11-27T20:43:45.305Z,100578.19
2022-11-27T20:46:13.668Z,100575.00
2022-11-27T20:48:41.079Z,100563.72
2022-11-27T20:51:09.377Z,100572.69
2022-11-27T20:53:38.015Z,100571.06
2022-11-27T20:56:06.009Z,100572.34
2022-11-27T20:58:37.767Z,100576.22
2022-11-27T21:01:15.409Z,100578.72
2022-11-27T21:03:43.482Z,100567.38
2022-11-27T21:06:11.980Z,100574.97
2022-11-27T21:08:39.274Z,100568.03
2022-11-27T21:11:09.598Z,100570.03
2022-11-27T21:13:37.426Z,100568.03
2022-11-27T21:16:07.222Z,100576.88
2022-11-27T21:18:34.458Z,100574.59
2022-11-27T21:21:06.822Z,100567.62
2022-11-27T21:23:34.109Z,100568.97
2022-11-27T21:26:01.696Z,100568.28
2022-11-27T21:28:30.101Z,100563.16
2022-11-27T21:31:08.424Z,100566.97
2022-11-27T21:33:36.400Z,100552.03
2022-11-27T21:36:03.960Z,100555.56
2022-11-27T21:38:31.177Z,100561.91
2022-11-27T21:40:58.695Z,100559.91
2022-11-27T21:43:25.941Z,100559.44
2022-11-27T21:45:53.823Z,100560.53
2022-11-27T21:48:21.714Z,100551.69
2022-11-27T21:50:49.032Z,100557.59
2022-11-27T21:53:16.999Z,100553.97
2022-11-27T21:55:44.503Z,100549.66
2022-11-27T21:58:12.030Z,100552.09
2022-11-27T22:00:39.714Z,100554.22
2022-11-27T22:03:07.162Z,100553.66
2022-11-27T22:05:34.378Z,100558.69
2022-11-27T22:08:01.670Z,100557.03
2022-11-27T22:10:29.227Z,100550.91
2022-11-27T22:12:56.590Z,100543.66
2022-11-27T22:15:23.905Z,100549.41
2022-11-27T22:17:51.595Z,100544.31
2022-11-27T22:20:18.848Z,100537.00
2022-11-27T22:22:46.807Z,100543.47
2022-11-27T22:25:14.882Z,100546.41
2022-11-27T22:27:42.296Z,100546.41
2022-11-27T22:30:09.716Z,100545.34
2022-11-27T22:32:37.384Z,100546.41
2022-11-27T22:35:04.780Z,100547.03
2022-11-27T22:37:32.367Z,100537.19
2022-11-27T22:39:59.999Z,100536.78
2022-11-27T22:42:27.240Z,100536.47
2022-11-27T22:44:54.518Z,100534.63
2022-11-27T22:47:22.016Z,100535.53
2022-11-27T22:49:49.256Z,100534.22
2022-11-27T22:52:16.688Z,100530.62
2022-11-27T22:54:44.401Z,100526.56
2022-11-27T22:57:13.965Z,100531.09
2022-11-27T22:59:41.203Z,100536.59
2022-11-27T23:02:09.676Z,100539.28
2022-11-27T23:04:37.174Z,100527.00
2022-11-27T23:07:04.944Z,100523.72
2022-11-27T23:09:32.627Z,100514.69
2022-11-27T23:11:59.818Z,100513.53
2022-11-27T23:14:27.339Z,100507.25
2022-11-27T23:16:54.955Z,100510.41
2022-11-27T23:19:22.272Z,100513.28
2022-11-27T23:21:49.563Z,100508.41
2022-11-27T23:24:17.039Z,100501.06
2022-11-27T23:26:44.480Z,100489.59
2022-11-27T23:29:11.900Z,100488.78
2022-11-27T23:31:39.564Z,100480.41
2022-11-27T23:34:07.954Z,100471.63
2022-11-27T23:36:35.237Z,100474.19
2022-11-27T23:39:04.159Z,100465.56
2022-11-27T23:41:31.373Z,100462.94
2022-11-27T23:43:58.684Z,100457.59
2022-11-27T23:46:26.876Z,100460.94
2022-11-27T23:48:54.810Z,100458.50
2022-11-27T23:51:23.663Z,100447.28
2022-11-27T23:53:51.440Z,100452.03
2022-11-27T23:56:21.409Z,100459.66
2022-11-27T23:58:48.632Z,100460.53
